sensor_id;sensor_type;location;lat;lon;timestamp;temperature;humidity
31263;DHT22;17892;52.080;9.006;2022-11-20T00:03:35;-4.30;95.30
31263;DHT22;17892;52.080;9.006;2022-11-20T00:06:07;-4.30;95.30
31263;DHT22;17892;52.080;9.006;2022-11-20T00:08:35;-4.30;95.30
31263;DHT22;17892;52.080;9.006;2022-11-20T00:11:09;-4.30;95.20
31263;DHT22;17892;52.080;9.006;2022-11-20T00:13:38;-4.30;95.10
31263;DHT22;17892;52.080;9.006;2022-11-20T00:16:06;-4.30;95.10
31263;DHT22;17892;52.080;9.006;2022-11-20T00:18:34;-4.30;95.10
31263;DHT22;17892;52.080;9.006;2022-11-20T00:21:04;-4.30;95.10
31263;DHT22;17892;52.080;9.006;2022-11-20T00:23:32;-4.40;95.20
31263;DHT22;17892;52.080;9.006;2022-11-20T00:26:02;-4.40;95.10
31263;DHT22;17892;52.080;9.006;2022-11-20T00:28:31;-4.40;95.20
31263;DHT22;17892;52.080;9.006;2022-11-20T00:31:05;-4.40;95.20
31263;DHT22;17892;52.080;9.006;2022-11-20T00:33:32;-4.40;95.20
31263;DHT22;17892;52.080;9.006;2022-11-20T00:36:09;-4.40;95.10
31263;DHT22;17892;52.080;9.006;2022-11-20T00:38:43;-4.40;95.10
31263;DHT22;17892;52.080;9.006;2022-11-20T00:41:11;-4.40;95.20
31263;DHT22;17892;52.080;9.006;2022-11-20T00:43:38;-4.40;95.20
31263;DHT22;17892;52.080;9.006;2022-11-20T00:46:16;-4.40;95.10
31263;DHT22;17892;52.080;9.006;2022-11-20T00:48:43;-4.40;95.20
31263;DHT22;17892;52.080;9.006;2022-11-20T00:51:11;-4.40;95.20
31263;DHT22;17892;52.080;9.006;2022-11-20T00:53:38;-4.40;95.30
31263;DHT22;17892;52.080;9.006;2022-11-20T00:56:07;-4.40;95.30
31263;DHT22;17892;52.080;9.006;2022-11-20T00:58:37;-4.40;95.30
31263;DHT22;17892;52.080;9.006;2022-11-20T01:01:05;-4.40;95.20
31263;DHT22;17892;52.080;9.006;2022-11-20T01:03:36;-4.50;95.20
31263;DHT22;17892;52.080;9.006;2022-11-20T01:06:38;-4.40;95.30
31263;DHT22;17892;52.080;9.006;2022-11-20T01:09:04;-4.50;95.20
31263;DHT22;17892;52.080;9.006;2022-11-20T01:11:34;-4.50;95.20
31263;DHT22;17892;52.080;9.006;2022-11-20T01:14:04;-4.50;95.20
31263;DHT22;17892;52.080;9.006;2022-11-20T01:16:37;-4.50;95.20
31263;DHT22;17892;52.080;9.006;2022-11-20T01:19:08;-4.50;95.10
31263;DHT22;17892;52.080;9.006;2022-11-20T01:21:38;-4.50;95.10
31263;DHT22;17892;52.080;9.006;2022-11-20T01:24:06;-4.50;95.20
31263;DHT22;17892;52.080;9.006;2022-11-20T01:26:35;-4.50;95.20
31263;DHT22;17892;52.080;9.006;2022-11-20T01:29:03;-4.50;95.30
31263;DHT22;17892;52.080;9.006;2022-11-20T01:31:34;-4.50;95.30
31263;DHT22;17892;52.080;9.006;2022-11-20T01:34:07;-4.50;95.30
31263;DHT22;17892;52.080;9.006;2022-11-20T01:36:38;-4.50;95.70
31263;DHT22;17892;52.080;9.006;2022-11-20T01:39:10;-4.50;95.30
31263;DHT22;17892;52.080;9.006;2022-11-20T01:41:47;-4.50;95.30
31263;DHT22;17892;52.080;9.006;2022-11-20T01:47:35;-4.50;95.30
31263;DHT22;17892;52.080;9.006;2022-11-20T01:50:25;-4.50;95.10
31263;DHT22;17892;52.080;9.006;2022-11-20T01:53:07;-4.50;95.20
31263;DHT22;17892;52.080;9.006;2022-11-20T01:55:41;-4.60;95.10
31263;DHT22;17892;52.080;9.006;2022-11-20T01:58:11;-4.60;95.20
31263;DHT22;17892;52.080;9.006;2022-11-20T02:00:38;-4.60;95.30
31263;DHT22;17892;52.080;9.006;2022-11-20T02:03:07;-4.60;95.40
31263;DHT22;17892;52.080;9.006;2022-11-20T02:05:55;-4.60;95.30
31263;DHT22;17892;52.080;9.006;2022-11-20T02:08:26;-4.50;95.40
31263;DHT22;17892;52.080;9.006;2022-11-20T02:10:52;-4.50;95.40
31263;DHT22;17892;52.080;9.006;2022-11-20T02:13:17;-4.50;95.40
31263;DHT22;17892;52.080;9.006;2022-11-20T02:16:02;-4.50;95.40
31263;DHT22;17892;52.080;9.006;2022-11-20T02:18:28;-4.50;95.40
31263;DHT22;17892;52.080;9.006;2022-11-20T02:21:01;-4.50;95.40
31263;DHT22;17892;52.080;9.006;2022-11-20T02:24:21;-4.50;95.50
31263;DHT22;17892;52.080;9.006;2022-11-20T02:27:10;-4.50;95.60
31263;DHT22;17892;52.080;9.006;2022-11-20T02:30:00;-4.40;95.70
31263;DHT22;17892;52.080;9.006;2022-11-20T02:32:33;-4.40;95.80
31263;DHT22;17892;52.080;9.006;2022-11-20T02:37:54;-4.40;95.70
31263;DHT22;17892;52.080;9.006;2022-11-20T02:40:21;-4.40;95.60
31263;DHT22;17892;52.080;9.006;2022-11-20T02:42:48;-4.40;95.60
31263;DHT22;17892;52.080;9.006;2022-11-20T02:45:17;-4.40;95.70
31263;DHT22;17892;52.080;9.006;2022-11-20T02:47:43;-4.30;96.10
31263;DHT22;17892;52.080;9.006;2022-11-20T02:50:08;-4.20;96.70
31263;DHT22;17892;52.080;9.006;2022-11-20T02:52:34;-4.20;97.00
31263;DHT22;17892;52.080;9.006;2022-11-20T02:55:00;-4.00;97.20
31263;DHT22;17892;52.080;9.006;2022-11-20T02:57:26;-3.90;97.20
31263;DHT22;17892;52.080;9.006;2022-11-20T02:59:52;-3.80;97.30
31263;DHT22;17892;52.080;9.006;2022-11-20T03:02:17;-3.70;97.30
31263;DHT22;17892;52.080;9.006;2022-11-20T03:04:43;-3.60;97.30
31263;DHT22;17892;52.080;9.006;2022-11-20T03:07:09;-3.50;97.40
31263;DHT22;17892;52.080;9.006;2022-11-20T03:09:35;-3.40;97.40
31263;DHT22;17892;52.080;9.006;2022-11-20T03:12:01;-3.30;97.30
31263;DHT22;17892;52.080;9.006;2022-11-20T03:14:26;-3.20;97.20
31263;DHT22;17892;52.080;9.006;2022-11-20T03:16:52;-3.20;97.10
31263;DHT22;17892;52.080;9.006;2022-11-20T03:19:18;-3.20;96.90
31263;DHT22;17892;52.080;9.006;2022-11-20T03:21:44;-3.10;96.80
31263;DHT22;17892;52.080;9.006;2022-11-20T03:24:09;-3.00;96.90
31263;DHT22;17892;52.080;9.006;2022-11-20T03:26:35;-3.00;96.70
31263;DHT22;17892;52.080;9.006;2022-11-20T03:29:03;-3.00;96.60
31263;DHT22;17892;52.080;9.006;2022-11-20T03:31:38;-3.00;96.40
31263;DHT22;17892;52.080;9.006;2022-11-20T03:34:09;-3.00;96.30
31263;DHT22;17892;52.080;9.006;2022-11-20T03:36:38;-3.00;96.50
31263;DHT22;17892;52.080;9.006;2022-11-20T03:39:04;-3.00;96.30
31263;DHT22;17892;52.080;9.006;2022-11-20T03:41:31;-3.00;96.40
31263;DHT22;17892;52.080;9.006;2022-11-20T03:44:04;-3.00;96.60
31263;DHT22;17892;52.080;9.006;2022-11-20T03:46:31;-3.10;96.80
31263;DHT22;17892;52.080;9.006;2022-11-20T03:48:57;-2.90;97.00
31263;DHT22;17892;52.080;9.006;2022-11-20T03:51:25;-2.90;97.00
31263;DHT22;17892;52.080;9.006;2022-11-20T03:53:58;-2.90;96.90
31263;DHT22;17892;52.080;9.006;2022-11-20T03:56:27;-2.80;96.90
31263;DHT22;17892;52.080;9.006;2022-11-20T03:58:55;-2.80;96.80
31263;DHT22;17892;52.080;9.006;2022-11-20T04:01:24;-2.70;96.90
31263;DHT22;17892;52.080;9.006;2022-11-20T04:03:54;-2.70;96.90
31263;DHT22;17892;52.080;9.006;2022-11-20T04:06:26;-2.70;96.90
31263;DHT22;17892;52.080;9.006;2022-11-20T04:08:57;-2.70;96.80
31263;DHT22;17892;52.080;9.006;2022-11-20T04:11:25;-2.60;96.70
31263;DHT22;17892;52.080;9.006;2022-11-20T04:13:55;-2.60;96.60
31263;DHT22;17892;52.080;9.006;2022-11-20T04:16:23;-2.60;96.50
31263;DHT22;17892;52.080;9.006;2022-11-20T04:18:54;-2.60;96.40
31263;DHT22;17892;52.080;9.006;2022-11-20T04:21:21;-2.60;96.40
31263;DHT22;17892;52.080;9.006;2022-11-20T04:23:48;-2.60;96.20
31263;DHT22;17892;52.080;9.006;2022-11-20T04:26:15;-2.60;96.20
31263;DHT22;17892;52.080;9.006;2022-11-20T04:28:40;-2.70;96.00
31263;DHT22;17892;52.080;9.006;2022-11-20T04:31:09;-2.70;96.00
31263;DHT22;17892;52.080;9.006;2022-11-20T04:33:36;-2.70;95.90
31263;DHT22;17892;52.080;9.006;2022-11-20T04:36:16;-2.70;95.90
31263;DHT22;17892;52.080;9.006;2022-11-20T04:38:53;-2.80;95.90
31263;DHT22;17892;52.080;9.006;2022-11-20T04:41:22;-2.80;96.00
31263;DHT22;17892;52.080;9.006;2022-11-20T04:43:51;-2.80;96.20
31263;DHT22;17892;52.080;9.006;2022-11-20T04:46:19;-2.70;96.50
31263;DHT22;17892;52.080;9.006;2022-11-20T04:48:46;-2.70;96.80
31263;DHT22;17892;52.080;9.006;2022-11-20T04:51:12;-2.70;96.90
31263;DHT22;17892;52.080;9.006;2022-11-20T04:53:38;-2.60;97.10
31263;DHT22;17892;52.080;9.006;2022-11-20T04:56:08;-2.60;97.10
31263;DHT22;17892;52.080;9.006;2022-11-20T04:58:35;-2.60;97.10
31263;DHT22;17892;52.080;9.006;2022-11-20T05:01:06;-2.50;97.20
31263;DHT22;17892;52.080;9.006;2022-11-20T05:03:34;-2.50;97.10
31263;DHT22;17892;52.080;9.006;2022-11-20T05:06:01;-2.40;97.10
31263;DHT22;17892;52.080;9.006;2022-11-20T05:08:28;-2.40;97.00
31263;DHT22;17892;52.080;9.006;2022-11-20T05:11:06;-2.40;96.90
31263;DHT22;17892;52.080;9.006;2022-11-20T05:13:33;-2.40;96.90
31263;DHT22;17892;52.080;9.006;2022-11-20T05:16:07;-2.40;96.80
31263;DHT22;17892;52.080;9.006;2022-11-20T05:18:35;-2.30;96.70
31263;DHT22;17892;52.080;9.006;2022-11-20T05:21:02;-2.30;96.70
31263;DHT22;17892;52.080;9.006;2022-11-20T05:23:30;-2.30;96.70
31263;DHT22;17892;52.080;9.006;2022-11-20T05:25:57;-2.30;96.70
31263;DHT22;17892;52.080;9.006;2022-11-20T05:28:23;-2.30;96.60
31263;DHT22;17892;52.080;9.006;2022-11-20T05:30:50;-2.30;96.60
31263;DHT22;17892;52.080;9.006;2022-11-20T05:33:16;-2.30;96.60
31263;DHT22;17892;52.080;9.006;2022-11-20T05:35:42;-2.30;96.60
31263;DHT22;17892;52.080;9.006;2022-11-20T05:38:08;-2.30;96.60
31263;DHT22;17892;52.080;9.006;2022-11-20T05:40:34;-2.30;96.50
31263;DHT22;17892;52.080;9.006;2022-11-20T05:43:00;-2.30;96.80
31263;DHT22;17892;52.080;9.006;2022-11-20T05:45:26;-2.40;96.30
31263;DHT22;17892;52.080;9.006;2022-11-20T05:47:52;-2.40;96.30
31263;DHT22;17892;52.080;9.006;2022-11-20T05:50:18;-2.40;96.40
31263;DHT22;17892;52.080;9.006;2022-11-20T05:52:44;-2.40;96.50
31263;DHT22;17892;52.080;9.006;2022-11-20T05:55:10;-2.40;96.50
31263;DHT22;17892;52.080;9.006;2022-11-20T05:57:36;-2.30;96.60
31263;DHT22;17892;52.080;9.006;2022-11-20T06:00:03;-2.40;96.50
31263;DHT22;17892;52.080;9.006;2022-11-20T06:02:29;-2.40;96.50
31263;DHT22;17892;52.080;9.006;2022-11-20T06:04:55;-2.40;96.40
31263;DHT22;17892;52.080;9.006;2022-11-20T06:07:20;-2.30;96.50
31263;DHT22;17892;52.080;9.006;2022-11-20T06:09:46;-2.30;96.50
31263;DHT22;17892;52.080;9.006;2022-11-20T06:12:12;-2.30;96.50
31263;DHT22;17892;52.080;9.006;2022-11-20T06:14:37;-2.30;96.50
31263;DHT22;17892;52.080;9.006;2022-11-20T06:17:03;-2.30;96.50
31263;DHT22;17892;52.080;9.006;2022-11-20T06:19:29;-2.30;96.40
31263;DHT22;17892;52.080;9.006;2022-11-20T06:21:54;-2.30;96.40
31263;DHT22;17892;52.080;9.006;2022-11-20T06:24:20;-2.30;96.40
31263;DHT22;17892;52.080;9.006;2022-11-20T06:26:46;-2.30;96.50
31263;DHT22;17892;52.080;9.006;2022-11-20T06:29:12;-2.30;96.50
31263;DHT22;17892;52.080;9.006;2022-11-20T06:31:37;-2.30;96.50
31263;DHT22;17892;52.080;9.006;2022-11-20T06:34:04;-2.30;96.60
31263;DHT22;17892;52.080;9.006;2022-11-20T06:36:31;-2.30;96.60
31263;DHT22;17892;52.080;9.006;2022-11-20T06:38:58;-2.30;96.60
31263;DHT22;17892;52.080;9.006;2022-11-20T06:41:24;-2.30;96.60
31263;DHT22;17892;52.080;9.006;2022-11-20T06:43:50;-2.30;96.50
31263;DHT22;17892;52.080;9.006;2022-11-20T06:46:18;-2.30;96.50
31263;DHT22;17892;52.080;9.006;2022-11-20T06:48:45;-2.30;96.40
31263;DHT22;17892;52.080;9.006;2022-11-20T06:51:11;-2.30;96.40
31263;DHT22;17892;52.080;9.006;2022-11-20T06:53:37;-2.30;96.30
31263;DHT22;17892;52.080;9.006;2022-11-20T06:56:04;-2.30;96.30
31263;DHT22;17892;52.080;9.006;2022-11-20T06:58:31;-2.30;96.30
31263;DHT22;17892;52.080;9.006;2022-11-20T07:01:20;-2.30;96.20
31263;DHT22;17892;52.080;9.006;2022-11-20T07:03:45;-2.30;96.60
31263;DHT22;17892;52.080;9.006;2022-11-20T07:06:10;-2.30;96.30
31263;DHT22;17892;52.080;9.006;2022-11-20T07:08:36;-2.30;96.30
31263;DHT22;17892;52.080;9.006;2022-11-20T07:11:05;-2.30;96.30
31263;DHT22;17892;52.080;9.006;2022-11-20T07:13:32;-2.30;96.30
31263;DHT22;17892;52.080;9.006;2022-11-20T07:16:03;-2.30;96.40
31263;DHT22;17892;52.080;9.006;2022-11-20T07:18:31;-2.30;96.40
31263;DHT22;17892;52.080;9.006;2022-11-20T07:21:03;-2.30;96.40
31263;DHT22;17892;52.080;9.006;2022-11-20T07:23:30;-2.30;96.40
31263;DHT22;17892;52.080;9.006;2022-11-20T07:25:56;-2.30;96.50
31263;DHT22;17892;52.080;9.006;2022-11-20T07:28:22;-2.30;96.60
31263;DHT22;17892;52.080;9.006;2022-11-20T07:30:52;-2.20;96.70
31263;DHT22;17892;52.080;9.006;2022-11-20T07:33:19;-2.20;96.90
31263;DHT22;17892;52.080;9.006;2022-11-20T07:35:45;-2.10;97.10
31263;DHT22;17892;52.080;9.006;2022-11-20T07:38:11;-2.10;97.20
31263;DHT22;17892;52.080;9.006;2022-11-20T07:40:36;-2.00;97.30
31263;DHT22;17892;52.080;9.006;2022-11-20T07:43:02;-1.90;97.40
31263;DHT22;17892;52.080;9.006;2022-11-20T07:45:28;-1.90;97.30
31263;DHT22;17892;52.080;9.006;2022-11-20T07:47:54;-1.80;97.30
31263;DHT22;17892;52.080;9.006;2022-11-20T07:50:19;-1.80;97.30
31263;DHT22;17892;52.080;9.006;2022-11-20T07:52:45;-1.70;97.40
31263;DHT22;17892;52.080;9.006;2022-11-20T07:55:11;-1.70;97.30
31263;DHT22;17892;52.080;9.006;2022-11-20T07:57:37;-1.60;97.20
31263;DHT22;17892;52.080;9.006;2022-11-20T08:00:04;-1.60;97.10
31263;DHT22;17892;52.080;9.006;2022-11-20T08:02:32;-1.60;97.10
31263;DHT22;17892;52.080;9.006;2022-11-20T08:04:58;-1.50;97.20
31263;DHT22;17892;52.080;9.006;2022-11-20T08:07:23;-1.50;97.30
31263;DHT22;17892;52.080;9.006;2022-11-20T08:09:49;-1.50;97.20
31263;DHT22;17892;52.080;9.006;2022-11-20T08:12:18;-1.40;97.50
31263;DHT22;17892;52.080;9.006;2022-11-20T08:15:05;-1.40;97.80
31263;DHT22;17892;52.080;9.006;2022-11-20T08:17:31;-1.20;98.00
31263;DHT22;17892;52.080;9.006;2022-11-20T08:19:57;-1.10;98.30
31263;DHT22;17892;52.080;9.006;2022-11-20T08:22:23;-0.90;98.80
31263;DHT22;17892;52.080;9.006;2022-11-20T08:24:50;-0.70;99.10
31263;DHT22;17892;52.080;9.006;2022-11-20T08:27:16;-0.50;99.00
31263;DHT22;17892;52.080;9.006;2022-11-20T08:29:41;-0.30;99.10
31263;DHT22;17892;52.080;9.006;2022-11-20T08:32:07;-0.20;98.90
31263;DHT22;17892;52.080;9.006;2022-11-20T08:34:33;0.00;98.70
31263;DHT22;17892;52.080;9.006;2022-11-20T08:36:58;0.20;98.80
31263;DHT22;17892;52.080;9.006;2022-11-20T08:39:24;0.30;98.90
31263;DHT22;17892;52.080;9.006;2022-11-20T08:41:50;0.50;98.70
31263;DHT22;17892;52.080;9.006;2022-11-20T08:44:15;0.50;98.60
31263;DHT22;17892;52.080;9.006;2022-11-20T08:46:42;0.60;98.20
31263;DHT22;17892;52.080;9.006;2022-11-20T08:49:10;0.60;97.80
31263;DHT22;17892;52.080;9.006;2022-11-20T08:51:38;0.70;97.50
31263;DHT22;17892;52.080;9.006;2022-11-20T08:54:04;0.70;97.40
31263;DHT22;17892;52.080;9.006;2022-11-20T08:56:31;0.70;97.20
31263;DHT22;17892;52.080;9.006;2022-11-20T08:58:56;0.60;97.10
31263;DHT22;17892;52.080;9.006;2022-11-20T09:01:24;0.60;97.20
31263;DHT22;17892;52.080;9.006;2022-11-20T09:03:51;0.60;97.50
31263;DHT22;17892;52.080;9.006;2022-11-20T09:06:17;0.70;97.80
31263;DHT22;17892;52.080;9.006;2022-11-20T09:08:43;0.70;97.90
31263;DHT22;17892;52.080;9.006;2022-11-20T09:11:09;0.70;97.60
31263;DHT22;17892;52.080;9.006;2022-11-20T09:13:36;0.70;97.60
31263;DHT22;17892;52.080;9.006;2022-11-20T09:16:04;0.70;97.20
31263;DHT22;17892;52.080;9.006;2022-11-20T09:18:32;0.80;97.00
31263;DHT22;17892;52.080;9.006;2022-11-20T09:21:03;0.80;95.90
31263;DHT22;17892;52.080;9.006;2022-11-20T09:23:36;0.80;96.70
31263;DHT22;17892;52.080;9.006;2022-11-20T09:26:15;0.80;97.00
31263;DHT22;17892;52.080;9.006;2022-11-20T09:28:41;0.80;97.40
31263;DHT22;17892;52.080;9.006;2022-11-20T09:31:18;0.80;97.90
31263;DHT22;17892;52.080;9.006;2022-11-20T09:33:48;0.90;98.40
31263;DHT22;17892;52.080;9.006;2022-11-20T09:36:13;1.00;98.80
31263;DHT22;17892;52.080;9.006;2022-11-20T09:38:39;1.10;99.10
31263;DHT22;17892;52.080;9.006;2022-11-20T09:41:06;1.20;99.20
31263;DHT22;17892;52.080;9.006;2022-11-20T09:47:12;1.30;98.10
31263;DHT22;17892;52.080;9.006;2022-11-20T09:50:07;1.40;98.30
31263;DHT22;17892;52.080;9.006;2022-11-20T09:55:47;1.50;99.40
31263;DHT22;17892;52.080;9.006;2022-11-20T09:58:29;1.60;99.30
31263;DHT22;17892;52.080;9.006;2022-11-20T10:01:18;1.70;99.40
31263;DHT22;17892;52.080;9.006;2022-11-20T10:06:41;2.00;99.70
31263;DHT22;17892;52.080;9.006;2022-11-20T10:20:46;2.50;99.40
31263;DHT22;17892;52.080;9.006;2022-11-20T10:23:45;2.60;99.10
31263;DHT22;17892;52.080;9.006;2022-11-20T10:26:46;2.70;98.50
31263;DHT22;17892;52.080;9.006;2022-11-20T10:29:33;2.70;97.40
31263;DHT22;17892;52.080;9.006;2022-11-20T10:32:10;2.70;98.00
31263;DHT22;17892;52.080;9.006;2022-11-20T10:34:54;2.80;97.70
31263;DHT22;17892;52.080;9.006;2022-11-20T10:37:29;2.80;97.60
31263;DHT22;17892;52.080;9.006;2022-11-20T10:40:14;2.80;98.30
31263;DHT22;17892;52.080;9.006;2022-11-20T10:42:53;2.90;98.50
31263;DHT22;17892;52.080;9.006;2022-11-20T10:50:43;3.10;98.90
31263;DHT22;17892;52.080;9.006;2022-11-20T10:56:42;3.20;97.70
31263;DHT22;17892;52.080;9.006;2022-11-20T10:59:24;3.20;97.30
31263;DHT22;17892;52.080;9.006;2022-11-20T11:01:58;3.30;98.20
31263;DHT22;17892;52.080;9.006;2022-11-20T11:04:36;3.30;98.50
31263;DHT22;17892;52.080;9.006;2022-11-20T11:09:54;3.50;98.00
31263;DHT22;17892;52.080;9.006;2022-11-20T11:12:24;3.60;98.60
31263;DHT22;17892;52.080;9.006;2022-11-20T11:14:53;3.70;98.90
31263;DHT22;17892;52.080;9.006;2022-11-20T11:17:33;3.80;99.10
31263;DHT22;17892;52.080;9.006;2022-11-20T11:20:19;4.00;98.40
31263;DHT22;17892;52.080;9.006;2022-11-20T11:22:57;4.10;99.20
31263;DHT22;17892;52.080;9.006;2022-11-20T11:25:27;4.20;98.50
31263;DHT22;17892;52.080;9.006;2022-11-20T11:28:22;4.30;99.20
31263;DHT22;17892;52.080;9.006;2022-11-20T11:30:51;4.50;98.20
31263;DHT22;17892;52.080;9.006;2022-11-20T11:33:22;4.60;98.80
31263;DHT22;17892;52.080;9.006;2022-11-20T11:36:01;4.70;98.00
31263;DHT22;17892;52.080;9.006;2022-11-20T11:38:30;4.80;98.10
31263;DHT22;17892;52.080;9.006;2022-11-20T11:41:09;4.80;98.10
31263;DHT22;17892;52.080;9.006;2022-11-20T11:43:38;4.80;97.50
31263;DHT22;17892;52.080;9.006;2022-11-20T11:49:16;4.90;98.30
31263;DHT22;17892;52.080;9.006;2022-11-20T11:52:00;4.90;98.90
31263;DHT22;17892;52.080;9.006;2022-11-20T12:00:12;5.20;98.30
31263;DHT22;17892;52.080;9.006;2022-11-20T12:05:28;5.30;97.40
31263;DHT22;17892;52.080;9.006;2022-11-20T12:08:17;5.30;97.60
31263;DHT22;17892;52.080;9.006;2022-11-20T12:13:58;5.30;96.90
31263;DHT22;17892;52.080;9.006;2022-11-20T12:16:33;5.20;96.10
31263;DHT22;17892;52.080;9.006;2022-11-20T12:19:01;5.10;96.70
31263;DHT22;17892;52.080;9.006;2022-11-20T12:21:49;5.00;96.50
31263;DHT22;17892;52.080;9.006;2022-11-20T12:27:24;4.70;95.10
31263;DHT22;17892;52.080;9.006;2022-11-20T12:30:06;4.60;96.20
31263;DHT22;17892;52.080;9.006;2022-11-20T12:35:32;4.30;97.10
31263;DHT22;17892;52.080;9.006;2022-11-20T12:50:15;4.10;98.50
31263;DHT22;17892;52.080;9.006;2022-11-20T12:56:19;4.10;98.10
31263;DHT22;17892;52.080;9.006;2022-11-20T13:01:43;4.40;98.60
31263;DHT22;17892;52.080;9.006;2022-11-20T13:07:13;5.10;99.90
31263;DHT22;17892;52.080;9.006;2022-11-20T13:09:46;5.40;99.90
31263;DHT22;17892;52.080;9.006;2022-11-20T13:12:24;5.70;99.90
31263;DHT22;17892;52.080;9.006;2022-11-20T13:15:00;5.90;99.90
31263;DHT22;17892;52.080;9.006;2022-11-20T13:17:41;6.10;99.20
31263;DHT22;17892;52.080;9.006;2022-11-20T13:20:14;6.10;98.10
31263;DHT22;17892;52.080;9.006;2022-11-20T13:22:53;6.10;97.80
31263;DHT22;17892;52.080;9.006;2022-11-20T13:25:39;6.00;96.90
31263;DHT22;17892;52.080;9.006;2022-11-20T13:28:28;5.80;96.70
31263;DHT22;17892;52.080;9.006;2022-11-20T13:30:57;5.70;96.30
31263;DHT22;17892;52.080;9.006;2022-11-20T13:33:30;5.50;97.10
31263;DHT22;17892;52.080;9.006;2022-11-20T13:36:03;5.40;96.90
31263;DHT22;17892;52.080;9.006;2022-11-20T13:38:48;5.20;97.20
31263;DHT22;17892;52.080;9.006;2022-11-20T13:41:36;5.10;96.90
31263;DHT22;17892;52.080;9.006;2022-11-20T13:46:48;4.90;96.90
31263;DHT22;17892;52.080;9.006;2022-11-20T13:55:31;4.60;97.20
31263;DHT22;17892;52.080;9.006;2022-11-20T14:01:31;4.40;96.60
31263;DHT22;17892;52.080;9.006;2022-11-20T14:03:58;4.30;97.40
31263;DHT22;17892;52.080;9.006;2022-11-20T14:06:33;4.20;97.40
31263;DHT22;17892;52.080;9.006;2022-11-20T14:09:04;4.10;97.30
31263;DHT22;17892;52.080;9.006;2022-11-20T14:11:30;4.00;97.30
31263;DHT22;17892;52.080;9.006;2022-11-20T14:14:13;4.00;97.30
31263;DHT22;17892;52.080;9.006;2022-11-20T14:16:41;3.90;96.80
31263;DHT22;17892;52.080;9.006;2022-11-20T14:24:13;3.60;97.20
31263;DHT22;17892;52.080;9.006;2022-11-20T14:26:43;3.60;97.30
31263;DHT22;17892;52.080;9.006;2022-11-20T14:29:18;3.50;97.30
31263;DHT22;17892;52.080;9.006;2022-11-20T14:31:46;3.40;97.40
31263;DHT22;17892;52.080;9.006;2022-11-20T14:34:20;3.30;97.60
31263;DHT22;17892;52.080;9.006;2022-11-20T14:36:48;3.30;97.60
31263;DHT22;17892;52.080;9.006;2022-11-20T14:39:33;3.20;97.90
31263;DHT22;17892;52.080;9.006;2022-11-20T14:42:01;3.20;98.00
31263;DHT22;17892;52.080;9.006;2022-11-20T14:44:30;3.10;98.10
31263;DHT22;17892;52.080;9.006;2022-11-20T14:46:59;3.10;98.10
31263;DHT22;17892;52.080;9.006;2022-11-20T14:49:26;3.00;98.10
31263;DHT22;17892;52.080;9.006;2022-11-20T14:52:22;3.00;98.20
31263;DHT22;17892;52.080;9.006;2022-11-20T14:54:50;2.90;97.60
31263;DHT22;17892;52.080;9.006;2022-11-20T14:57:27;2.90;96.90
31263;DHT22;17892;52.080;9.006;2022-11-20T15:02:44;2.80;98.10
31263;DHT22;17892;52.080;9.006;2022-11-20T15:05:11;2.70;98.30
31263;DHT22;17892;52.080;9.006;2022-11-20T15:07:40;2.70;98.40
31263;DHT22;17892;52.080;9.006;2022-11-20T15:12:48;2.60;98.70
31263;DHT22;17892;52.080;9.006;2022-11-20T15:15:35;2.60;98.60
31263;DHT22;17892;52.080;9.006;2022-11-20T15:18:04;2.60;98.70
31263;DHT22;17892;52.080;9.006;2022-11-20T15:20:32;2.60;98.90
31263;DHT22;17892;52.080;9.006;2022-11-20T15:22:58;2.50;98.80
31263;DHT22;17892;52.080;9.006;2022-11-20T15:25:25;2.50;98.90
31263;DHT22;17892;52.080;9.006;2022-11-20T15:27:59;2.50;98.90
31263;DHT22;17892;52.080;9.006;2022-11-20T15:30:25;2.50;98.70
31263;DHT22;17892;52.080;9.006;2022-11-20T15:32:51;2.50;98.90
31263;DHT22;17892;52.080;9.006;2022-11-20T15:35:17;2.50;98.80
31263;DHT22;17892;52.080;9.006;2022-11-20T15:37:43;2.40;98.70
31263;DHT22;17892;52.080;9.006;2022-11-20T15:40:09;2.40;98.80
31263;DHT22;17892;52.080;9.006;2022-11-20T15:42:35;2.40;98.90
31263;DHT22;17892;52.080;9.006;2022-11-20T15:45:01;2.40;98.90
31263;DHT22;17892;52.080;9.006;2022-11-20T15:47:32;2.30;98.90
31263;DHT22;17892;52.080;9.006;2022-11-20T15:49:59;2.30;99.00
31263;DHT22;17892;52.080;9.006;2022-11-20T15:52:26;2.30;99.10
31263;DHT22;17892;52.080;9.006;2022-11-20T15:54:52;2.30;98.90
31263;DHT22;17892;52.080;9.006;2022-11-20T15:57:18;2.30;99.00
31263;DHT22;17892;52.080;9.006;2022-11-20T15:59:44;2.30;99.10
31263;DHT22;17892;52.080;9.006;2022-11-20T16:02:14;2.20;99.20
31263;DHT22;17892;52.080;9.006;2022-11-20T16:04:41;2.20;99.20
31263;DHT22;17892;52.080;9.006;2022-11-20T16:07:07;2.20;99.30
31263;DHT22;17892;52.080;9.006;2022-11-20T16:09:33;2.20;99.40
31263;DHT22;17892;52.080;9.006;2022-11-20T16:11:59;2.20;99.50
31263;DHT22;17892;52.080;9.006;2022-11-20T16:14:25;2.20;99.50
31263;DHT22;17892;52.080;9.006;2022-11-20T16:17:10;2.20;99.50
31263;DHT22;17892;52.080;9.006;2022-11-20T16:19:37;2.20;99.40
31263;DHT22;17892;52.080;9.006;2022-11-20T16:22:03;2.20;99.40
31263;DHT22;17892;52.080;9.006;2022-11-20T16:24:29;2.20;99.40
31263;DHT22;17892;52.080;9.006;2022-11-20T16:26:56;2.20;99.40
31263;DHT22;17892;52.080;9.006;2022-11-20T16:29:22;2.20;99.40
31263;DHT22;17892;52.080;9.006;2022-11-20T16:31:48;2.20;99.40
31263;DHT22;17892;52.080;9.006;2022-11-20T16:34:15;2.20;99.40
31263;DHT22;17892;52.080;9.006;2022-11-20T16:36:43;2.20;99.40
31263;DHT22;17892;52.080;9.006;2022-11-20T16:39:12;2.20;99.40
31263;DHT22;17892;52.080;9.006;2022-11-20T16:41:38;2.10;99.40
31263;DHT22;17892;52.080;9.006;2022-11-20T16:44:09;2.10;99.30
31263;DHT22;17892;52.080;9.006;2022-11-20T16:46:36;2.10;99.30
31263;DHT22;17892;52.080;9.006;2022-11-20T16:49:04;2.10;99.50
31263;DHT22;17892;52.080;9.006;2022-11-20T16:51:34;2.10;99.60
31263;DHT22;17892;52.080;9.006;2022-11-20T16:54:05;2.10;99.70
31263;DHT22;17892;52.080;9.006;2022-11-20T16:56:32;2.20;99.70
31263;DHT22;17892;52.080;9.006;2022-11-20T16:58:59;2.20;99.80
31263;DHT22;17892;52.080;9.006;2022-11-20T17:01:26;2.20;99.80
31263;DHT22;17892;52.080;9.006;2022-11-20T17:04:01;2.20;99.90
31263;DHT22;17892;52.080;9.006;2022-11-20T17:06:30;2.30;99.90
31263;DHT22;17892;52.080;9.006;2022-11-20T17:08:57;2.30;99.90
31263;DHT22;17892;52.080;9.006;2022-11-20T17:11:24;2.40;99.90
31263;DHT22;17892;52.080;9.006;2022-11-20T17:13:51;2.40;99.90
31263;DHT22;17892;52.080;9.006;2022-11-20T17:16:19;2.50;99.90
31263;DHT22;17892;52.080;9.006;2022-11-20T17:18:46;2.50;99.90
31263;DHT22;17892;52.080;9.006;2022-11-20T17:21:14;2.50;99.90
31263;DHT22;17892;52.080;9.006;2022-11-20T17:23:42;2.60;99.90
31263;DHT22;17892;52.080;9.006;2022-11-20T17:26:16;2.60;99.90
31263;DHT22;17892;52.080;9.006;2022-11-20T17:28:45;2.70;99.50
31263;DHT22;17892;52.080;9.006;2022-11-20T17:31:14;2.70;99.60
31263;DHT22;17892;52.080;9.006;2022-11-20T17:33:42;2.70;99.80
31263;DHT22;17892;52.080;9.006;2022-11-20T17:36:10;2.70;99.90
31263;DHT22;17892;52.080;9.006;2022-11-20T17:38:37;2.80;99.50
31263;DHT22;17892;52.080;9.006;2022-11-20T17:41:06;2.80;99.60
31263;DHT22;17892;52.080;9.006;2022-11-20T17:43:33;2.90;99.70